M I D A S
Marine Information and Data Acquisition System
Tripno 2147 of the Zeeleeuw from 2011-07-18 07:07:04 to 2011-07-18 13:53:03
Back to CruiseResearch ActivitiesStationsMapUnderway DataData graphs

EquipmentUnitsComment
TimeDGPSUTC
LatitudeDGPSDM.mWGS84
LongitudeDGPSDM.mWGS84
HeadingGyrodeg 
SOGDGPSknotsSpeed over ground
COGDGPSdegCourse over ground
DepthEcho soundermeters200 kHz
Missing or incorrect values are displayed as -999
Navigation data collected by the RV Zeeleeuw from 2011-07-18 06:54:56 to 2011-07-18 15:36:40
Time Latitude Longitude Heading SOG COG Depth
2011-07-18 06:56:06 51°13.658 2°55.941 109 3.9 291 -999
2011-07-18 06:57:06 51°13.679 2°55.844 106.5 3.7 289 -999
2011-07-18 06:58:06 51°13.691 2°55.768 87 1.2 295 -999
2011-07-18 06:59:06 51°13.7 2°55.769 37 0.5 249 -999
2011-07-18 07:00:06 51°13.698 2°55.755 3.8 2.4 353 -999
2011-07-18 07:01:06 51°13.784 2°55.683 329.5 7.6 328 -999
2011-07-18 07:02:06 51°13.907 2°55.58 334.7 8.8 335 -999
2011-07-18 07:03:05 51°14.041 2°55.484 336.5 9.1 336 10.6
2011-07-18 07:04:06 51°14.182 2°55.38 333.9 9.4 332 -999
2011-07-18 07:05:04 51°14.314 2°55.249 328.1 9.9 326 10.7
2011-07-18 07:06:04 51°14.458 2°55.094 327.5 10.9 327 11.4
2011-07-18 07:07:02 51°14.602 2°54.906 317.7 12.4 313 11.6
2011-07-18 07:08:02 51°14.778 2°54.725 339.8 12.8 335 11.4
2011-07-18 07:09:02 51°14.965 2°54.569 335.7 12.6 332 10.4
2011-07-18 07:10:02 51°15.153 2°54.429 345 12.3 345 8
2011-07-18 07:11:02 51°15.357 2°54.382 358.2 12.8 353 8.9
2011-07-18 07:12:02 51°15.567 2°54.342 354.5 12.7 348 8.7
2011-07-18 07:13:02 51°15.772 2°54.285 357.2 12.2 357 9.6
2011-07-18 07:14:03 51°15.976 2°54.338 18.9 12.2 13 9.7
2011-07-18 07:15:02 51°16.139 2°54.356 353.8 7.4 346 10.1
2011-07-18 07:16:03 51°16.224 2°54.301 335.7 4.3 330 10.1
2011-07-18 07:17:02 51°16.258 2°54.272 336.1 0.9 324 10.2
2011-07-18 07:18:02 51°16.264 2°54.272 328.9 0.2 -999 10.3
2011-07-18 07:19:02 51°16.269 2°54.275 327.2 0.2 14 10.2
2011-07-18 07:20:03 51°16.271 2°54.281 332.2 0.2 70 10.6
2011-07-18 07:21:02 51°16.272 2°54.287 335.5 0.4 69 10.8
2011-07-18 07:22:03 51°16.274 2°54.292 335.4 0.3 41 11.1
2011-07-18 07:23:03 51°16.276 2°54.293 333.7 0.4 333 10.4
2011-07-18 07:24:02 51°16.313 2°54.258 322.4 4.8 318 10.8
2011-07-18 07:25:03 51°16.38 2°54.104 297.7 9 294 10.7
2011-07-18 07:26:02 51°16.45 2°53.849 296.9 11.7 296 11.1
2011-07-18 07:27:02 51°16.554 2°53.58 308 12 307 11.2
2011-07-18 07:28:02 51°16.686 2°53.339 316.3 12.5 316 11.2
2011-07-18 07:29:02 51°16.852 2°53.142 329.2 12.3 327 8.4
2011-07-18 07:30:02 51°17.012 2°52.944 320.2 12.5 319 8.6
2011-07-18 07:31:02 51°17.168 2°52.726 319.4 12.3 317 9
2011-07-18 07:32:03 51°17.336 2°52.53 330.9 12.5 329 9.3
2011-07-18 07:33:02 51°17.517 2°52.381 339.9 12.4 337 9.3
2011-07-18 07:34:02 51°17.712 2°52.284 343.9 12.3 341 9.8
2011-07-18 07:35:02 51°17.896 2°52.146 332.3 12.3 329 10.5
2011-07-18 07:36:02 51°18.059 2°51.956 320.6 12 318 10.1
2011-07-18 07:37:03 51°18.206 2°51.719 316.7 12.5 316 11.1
2011-07-18 07:38:02 51°18.347 2°51.485 314.5 12.4 314 11.4
2011-07-18 07:39:02 51°18.484 2°51.239 310.7 12.4 306 13
2011-07-18 07:40:02 51°18.546 2°51.041 286.9 4.8 288 13.9
2011-07-18 07:41:02 51°18.564 2°50.988 293.5 0.6 319 13.5
2011-07-18 07:42:04 51°18.572 2°50.991 325.4 0.4 10 -999
2011-07-18 07:43:03 51°18.577 2°50.994 339.3 0.4 60 13.3
2011-07-18 07:44:02 51°18.581 2°50.999 340.1 0.4 56 13.9
2011-07-18 07:45:02 51°18.583 2°51.002 339 0.4 58 13.6
2011-07-18 07:46:02 51°18.584 2°51.007 336.2 0.1 26 13.7
2011-07-18 07:47:02 51°18.584 2°51.013 335.6 0.2 127 13.1
2011-07-18 07:48:02 51°18.585 2°51.021 338.7 0.4 77 13.3
2011-07-18 07:49:02 51°18.586 2°51.027 333.6 0.3 18 13.4
2011-07-18 07:50:02 51°18.619 2°51.026 12.6 3.3 7 13.3
2011-07-18 07:51:02 51°18.65 2°51.09 87.7 3.3 91 13.8
2011-07-18 07:52:02 51°18.605 2°51.164 152.5 5.8 159 13.1
2011-07-18 07:53:02 51°18.472 2°51.273 147.1 11.1 146 12.9
2011-07-18 07:54:02 51°18.3 2°51.435 147.4 12.1 150 11.1
2011-07-18 07:55:02 51°18.123 2°51.594 150.5 12.8 150 10.3
2011-07-18 07:56:02 51°17.936 2°51.726 150.3 12.4 163 9.7
2011-07-18 07:57:02 51°17.749 2°51.852 154.2 12 160 9.2
2011-07-18 07:58:02 51°17.56 2°51.982 157 12.2 151 9.3
2011-07-18 07:59:02 51°17.369 2°52.116 154.9 12.2 155 10.1
2011-07-18 08:00:03 51°17.177 2°52.256 154.4 12.4 153 10.2
2011-07-18 08:01:02 51°16.994 2°52.388 151.9 12.5 155 9.2
2011-07-18 08:02:02 51°16.808 2°52.525 154 12.3 152 8.7
2011-07-18 08:03:02 51°16.62 2°52.657 155.1 12.4 152 10.4
2011-07-18 08:04:02 51°16.427 2°52.776 153.8 12.5 157 10.9
2011-07-18 08:05:02 51°16.237 2°52.903 152.6 12.5 161 11.4
2011-07-18 08:06:03 51°16.046 2°53.034 150.3 12.5 155 10.8
2011-07-18 08:07:02 51°15.858 2°53.156 152.6 12.4 165 10.7
2011-07-18 08:08:02 51°15.671 2°53.286 150.5 12.6 157 10.6
2011-07-18 08:09:02 51°15.489 2°53.434 147.5 12.1 151 9.8
2011-07-18 08:10:02 51°15.303 2°53.568 155.7 12.6 163 9.2
2011-07-18 08:11:02 51°15.106 2°53.656 161.8 12.4 165 9.1
2011-07-18 08:12:02 51°14.907 2°53.738 161.9 12.2 167 8.7
2011-07-18 08:13:02 51°14.703 2°53.774 171.9 12.5 171 8.4
2011-07-18 08:14:02 51°14.494 2°53.76 187.4 12.8 192 8.8
2011-07-18 08:15:02 51°14.302 2°53.604 214.4 13.3 219 8.9
2011-07-18 08:16:02 51°14.166 2°53.329 238.4 13.1 239 8.3
2011-07-18 08:17:02 51°14.052 2°53.03 236 13.2 236 8.9
2011-07-18 08:18:02 51°13.926 2°52.741 234.1 13.3 235 9.1
2011-07-18 08:19:02 51°13.797 2°52.455 233.1 13.3 234 9.4
2011-07-18 08:20:02 51°13.662 2°52.178 232 13.3 234 9
2011-07-18 08:21:02 51°13.539 2°51.885 234.5 13.3 237 9.3
2011-07-18 08:22:02 51°13.422 2°51.587 237.8 13.3 240 9.1
2011-07-18 08:23:02 51°13.301 2°51.292 233.7 13.1 235 9.4
2011-07-18 08:24:02 51°13.183 2°50.995 238.3 13.3 240 9.3
2011-07-18 08:25:02 51°13.064 2°50.699 235.8 13.3 238 9.7
2011-07-18 08:26:03 51°12.949 2°50.393 238.6 13 240 9.5
2011-07-18 08:27:02 51°12.843 2°50.094 239.4 13.2 239 9.5
2011-07-18 08:28:02 51°12.73 2°49.793 240.8 13.3 242 10.1
2011-07-18 08:29:02 51°12.636 2°49.474 244.9 13.3 245 10.2
2011-07-18 08:30:02 51°12.531 2°49.163 241.4 13.4 242 10.4
2011-07-18 08:31:02 51°12.425 2°48.852 242.8 13.3 243 10.7
2011-07-18 08:32:02 51°12.335 2°48.531 247.9 13.4 248 10.9
2011-07-18 08:33:03 51°12.242 2°48.207 244 13.1 243 10.7
2011-07-18 08:34:02 51°12.156 2°47.892 249.9 13.4 251 11.1
2011-07-18 08:35:03 51°12.076 2°47.557 248.3 13.3 248 11.1
2011-07-18 08:36:02 51°11.997 2°47.234 247.4 13.2 247 11.2
2011-07-18 08:37:02 51°11.91 2°46.908 249.2 13.4 248 11.3
2011-07-18 08:38:02 51°11.827 2°46.579 249 13.4 250 11.6
2011-07-18 08:39:03 51°11.742 2°46.244 246.5 13.4 247 11.5
2011-07-18 08:40:02 51°11.659 2°45.922 250.1 13.3 250 11.1
2011-07-18 08:41:03 51°11.581 2°45.587 250.6 13.4 249 11.6
2011-07-18 08:42:02 51°11.501 2°45.267 245.8 13.2 247 11.7
2011-07-18 08:43:03 51°11.412 2°44.937 248.6 13.4 250 11.8
2011-07-18 08:44:03 51°11.347 2°44.601 254.8 13.3 253 11.5
2011-07-18 08:45:02 51°11.283 2°44.269 252.6 13.3 252 11.3
2011-07-18 08:46:03 51°11.21 2°43.932 251.9 13.3 252 11.6
2011-07-18 08:47:02 51°11.148 2°43.603 252.5 13.2 251 11.6
2011-07-18 08:48:02 51°11.078 2°43.272 251.4 13.2 250 11.3
2011-07-18 08:49:02 51°11.009 2°42.938 254.2 13.3 254 11.5
2011-07-18 08:50:02 51°10.946 2°42.601 253.4 13.2 253 11.6
2011-07-18 08:51:03 51°10.877 2°42.291 245.4 9.2 245 11.4
2011-07-18 08:52:02 51°10.874 2°42.139 312.2 4.3 310 12.1
2011-07-18 08:53:02 51°10.939 2°42.111 4.3 5.6 352 11.5
2011-07-18 08:54:02 51°11.064 2°42.083 0.8 7.5 353 11.4
2011-07-18 08:55:02 51°11.127 2°42.051 343.1 1.7 332 11.6
2011-07-18 08:56:02 51°11.136 2°42.04 334 0.4 313 11
2011-07-18 08:57:02 51°11.138 2°42.037 332 0.1 337 11.2
2011-07-18 08:58:03 51°11.137 2°42.04 340.3 0.2 177 11.2
2011-07-18 08:59:02 51°11.133 2°42.042 345.1 0.3 168 11.2
2011-07-18 09:00:03 51°11.13 2°42.042 346.5 0.2 122 11.3
2011-07-18 09:01:02 51°11.126 2°42.042 344 0.2 252 11.3
2011-07-18 09:02:02 51°11.145 2°42.017 319 2.5 307 11.2
2011-07-18 09:03:02 51°11.166 2°41.947 288.5 3.3 286 11.2
2011-07-18 09:04:02 51°11.149 2°41.83 238.3 6.7 239 11.3
2011-07-18 09:05:02 51°11.077 2°41.608 245.4 10.5 246 10.9
2011-07-18 09:06:02 51°11.004 2°41.345 245.1 11 244 11.5
2011-07-18 09:07:02 51°10.92 2°41.084 242.7 11.1 243 11.6
2011-07-18 09:08:02 51°10.842 2°40.818 245.9 11 246 12
2011-07-18 09:09:02 51°10.764 2°40.55 245.2 11.1 245 12.3
2011-07-18 09:10:02 51°10.68 2°40.288 243.2 11.1 243 12.6
2011-07-18 09:11:03 51°10.593 2°40.02 244.5 11.3 245 13.1
2011-07-18 09:12:02 51°10.513 2°39.759 244.4 11.1 244 13.3
2011-07-18 09:13:02 51°10.434 2°39.492 246 11.2 245 13.8
2011-07-18 09:14:02 51°10.357 2°39.222 245.4 11.2 245 14
2011-07-18 09:15:02 51°10.272 2°38.96 241.5 11.3 241 14.4
2011-07-18 09:16:02 51°10.209 2°38.648 262.6 12.6 262 14.6
2011-07-18 09:17:02 51°10.188 2°38.309 266.5 12.9 265 15.2
2011-07-18 09:18:03 51°10.168 2°37.96 266.6 13 266 15.9
2011-07-18 09:19:02 51°10.15 2°37.622 267.9 13 266 16.6
2011-07-18 09:20:03 51°10.14 2°37.275 270.8 12.8 268 16.8
2011-07-18 09:21:02 51°10.147 2°36.937 276.8 13 276 16.9
2011-07-18 09:22:02 51°10.192 2°36.602 287.5 12.9 285 16.8
2011-07-18 09:23:02 51°10.242 2°36.274 284.6 12.5 282 13.5
2011-07-18 09:24:02 51°10.314 2°35.971 305.4 12 303 9.3
2011-07-18 09:25:03 51°10.465 2°35.765 335.1 11.6 333 9.7
2011-07-18 09:26:02 51°10.646 2°35.681 356.7 11.6 355 9.6
2011-07-18 09:27:03 51°10.831 2°35.747 26.1 11.4 26 9.5
2011-07-18 09:28:02 51°10.985 2°35.908 36.5 11.4 38 9.7
2011-07-18 09:29:03 51°11.138 2°36.09 37.6 11.3 36 10.2
2011-07-18 09:30:02 51°11.286 2°36.269 39.1 11.3 32 10
2011-07-18 09:31:03 51°11.437 2°36.461 38.1 11.2 38 10.4
2011-07-18 09:32:02 51°11.583 2°36.645 39 11.5 41 10.2
2011-07-18 09:33:02 51°11.736 2°36.823 31.8 11.2 23 10.3
2011-07-18 09:34:02 51°11.902 2°36.964 31.2 11.3 29 10.6
2011-07-18 09:35:02 51°12.073 2°37.098 28.8 11.4 23 10.2
2011-07-18 09:36:03 51°12.252 2°37.21 18.3 11.5 19 10.5
2011-07-18 09:37:02 51°12.436 2°37.273 16.2 11.5 15 10.5
2011-07-18 09:38:03 51°12.623 2°37.362 20.4 11.5 20 11
2011-07-18 09:39:02 51°12.81 2°37.358 357.1 11.7 353 10.7
2011-07-18 09:40:03 51°13.005 2°37.315 357.2 11.7 354 10
2011-07-18 09:41:02 51°13.194 2°37.28 358.6 11.7 357 8.4
2011-07-18 09:42:03 51°13.392 2°37.251 356.5 11.9 353 8.7
2011-07-18 09:43:03 51°13.588 2°37.218 358.9 12.3 356 10.8
2011-07-18 09:44:03 51°13.791 2°37.182 357.9 12.2 350 18.6
2011-07-18 09:45:03 51°13.988 2°37.14 358.5 12.1 353 19
2011-07-18 09:46:03 51°14.184 2°37.099 357.6 11.9 347 13.5
2011-07-18 09:47:03 51°14.378 2°37.065 0.1 11.6 356 11.3
2011-07-18 09:48:02 51°14.568 2°37.035 357.3 11.6 354 9.5
2011-07-18 09:49:02 51°14.763 2°36.997 356.5 11.8 356 10
2011-07-18 09:50:02 51°14.962 2°36.972 0.7 12.3 357 11.2
2011-07-18 09:51:02 51°15.163 2°36.945 358.1 12.2 359 13.3
2011-07-18 09:52:02 51°15.364 2°36.91 358.3 12 357 12.6
2011-07-18 09:53:02 51°15.562 2°36.874 358.2 12.1 357 11.4
2011-07-18 09:54:02 51°15.765 2°36.846 357.6 12.2 350 14.5
2011-07-18 09:55:02 51°15.964 2°36.854 5.9 11.9 5 20.1
2011-07-18 09:56:02 51°16.158 2°36.858 359.1 11.6 -999 25.3
2011-07-18 09:57:02 51°16.351 2°36.849 2.5 11.7 2 26.3
2011-07-18 09:58:02 51°16.528 2°36.829 359.1 8.8 357 26.3
2011-07-18 09:59:02 51°16.602 2°36.788 326.7 1.5 297 26.2
2011-07-18 10:00:02 51°16.596 2°36.773 322 0.5 201 26.1
2011-07-18 10:01:03 51°16.586 2°36.767 338.2 0.8 215 25.4
2011-07-18 10:02:02 51°16.578 2°36.765 343.3 0.7 210 25.7
2011-07-18 10:03:02 51°16.568 2°36.763 338.7 0.5 187 26.1
2011-07-18 10:04:02 51°16.558 2°36.761 336.5 0.7 192 25.9
2011-07-18 10:05:02 51°16.548 2°36.762 340.7 0.6 146 24.9
2011-07-18 10:06:02 51°16.536 2°36.764 341.4 0.7 199 26.3
2011-07-18 10:07:02 51°16.527 2°36.763 335.6 0.6 173 26.5
2011-07-18 10:08:02 51°16.553 2°36.745 353.8 3.3 348 25.6
2011-07-18 10:09:02 51°16.615 2°36.771 30.7 4.7 28 26.1
2011-07-18 10:10:02 51°16.697 2°36.821 23 5.7 11 25.9
2011-07-18 10:11:02 51°16.787 2°36.864 24 5.7 25 26.7
2011-07-18 10:12:02 51°16.856 2°36.967 45.8 5.7 46 27.2
2011-07-18 10:13:02 51°16.927 2°37.071 41.8 5.9 45 28.2
2011-07-18 10:14:02 51°17.002 2°37.179 45.8 6.1 40 27.9
2011-07-18 10:15:02 51°17.07 2°37.298 47.6 6.3 43 26.9
2011-07-18 10:16:02 51°17.138 2°37.422 49.4 6 45 26.3
2011-07-18 10:17:02 51°17.208 2°37.541 45.1 6.2 45 26.4
2011-07-18 10:18:02 51°17.28 2°37.659 45.2 6.3 54 26.8
2011-07-18 10:19:03 51°17.35 2°37.774 44.9 5.9 45 26.8
2011-07-18 10:20:02 51°17.417 2°37.891 46.5 6 52 27.1
2011-07-18 10:21:03 51°17.5 2°38.002 35.9 7.6 28 26.3
2011-07-18 10:22:02 51°17.637 2°38.142 36.3 11.5 23 26.8
2011-07-18 10:23:02 51°17.798 2°38.313 40.7 11.2 38 26.6
2011-07-18 10:24:02 51°17.927 2°38.545 52.1 10.9 59 26.6
2011-07-18 10:25:02 51°18.048 2°38.794 49.7 11.9 52 26.3
2011-07-18 10:26:03 51°18.189 2°39.022 43.6 11.6 41 26.4
2011-07-18 10:27:02 51°18.333 2°39.232 45.4 12.1 44 26.2
2011-07-18 10:28:03 51°18.482 2°39.433 42.2 11.2 43 25.2
2011-07-18 10:29:02 51°18.618 2°39.646 47 11.4 47 24.6
2011-07-18 10:30:02 51°18.765 2°39.851 39.6 11.8 28 24.3
2011-07-18 10:31:02 51°18.913 2°40.038 46.5 11 47 22.7
2011-07-18 10:32:02 51°19.011 2°40.3 64.1 11.8 58 21
2011-07-18 10:33:02 51°19.085 2°40.579 64.5 11.1 73 18.3
2011-07-18 10:34:03 51°19.165 2°40.856 60.3 11.5 64 19.2
2011-07-18 10:35:02 51°19.254 2°41.118 60.9 11.8 63 18.6
2011-07-18 10:36:03 51°19.35 2°41.382 60.9 11.3 66 18.3
2011-07-18 10:37:03 51°19.449 2°41.632 56 11.5 54 21.8
2011-07-18 10:38:02 51°19.546 2°41.884 59.6 11.3 56 22.3
2011-07-18 10:39:03 51°19.647 2°42.144 56.1 11.4 52 23.8
2011-07-18 10:40:03 51°19.743 2°42.393 61.8 10.9 58 25
2011-07-18 10:41:02 51°19.834 2°42.647 61.3 10.8 61 25.5
2011-07-18 10:42:02 51°19.922 2°42.903 57.5 11 51 25.6
2011-07-18 10:43:02 51°20.017 2°43.168 60.4 12.3 70 27.3
2011-07-18 10:44:02 51°20.107 2°43.443 55.8 11.3 60 26.9
2011-07-18 10:45:02 51°20.213 2°43.692 52.3 11.2 52 27.3
2011-07-18 10:46:02 51°20.314 2°43.946 60.1 11.2 64 26.9
2011-07-18 10:47:02 51°20.407 2°44.21 62.8 11.4 63 26.7
2011-07-18 10:48:03 51°20.518 2°44.465 53.7 11.6 55 26.6
2011-07-18 10:49:02 51°20.657 2°44.675 42.8 12.5 42 26.3
2011-07-18 10:50:02 51°20.81 2°44.861 40.7 11.2 38 26.6
2011-07-18 10:51:02 51°20.953 2°45.066 41.5 11.5 35 26.6
2011-07-18 10:52:02 51°21.108 2°45.255 32.7 10.9 31 26.1
2011-07-18 10:53:02 51°21.288 2°45.378 21.9 11.8 23 25.8
2011-07-18 10:54:02 51°21.469 2°45.492 20.2 11.4 26 25
2011-07-18 10:55:03 51°21.657 2°45.603 24 12.1 13 24.2
2011-07-18 10:56:02 51°21.833 2°45.727 27.8 11.9 35 22.8
2011-07-18 10:57:03 51°22.014 2°45.859 24.7 11.6 26 21.5
2011-07-18 10:58:02 51°22.185 2°45.991 26.7 11.3 27 20.7
2011-07-18 10:59:03 51°22.36 2°46.125 22.4 11.8 12 20.7
2011-07-18 11:00:03 51°22.537 2°46.251 22.5 11 26 22.2
2011-07-18 11:01:02 51°22.705 2°46.391 33.6 11.9 20 23.5
2011-07-18 11:02:03 51°22.89 2°46.485 18 11.5 7 20.4
2011-07-18 11:03:02 51°23.065 2°46.599 27.4 11.4 18 23.9
2011-07-18 11:04:03 51°23.235 2°46.748 31.6 11.7 25 22.3
2011-07-18 11:05:02 51°23.399 2°46.902 29.8 11.3 22 23.6
2011-07-18 11:06:03 51°23.565 2°47.062 30.5 11.5 32 22.3
2011-07-18 11:07:02 51°23.728 2°47.215 28.7 11 32 22.8
2011-07-18 11:08:02 51°23.908 2°47.326 20.4 12.1 22 22.7
2011-07-18 11:09:03 51°24.092 2°47.435 24 11.5 18 26.3
2011-07-18 11:10:02 51°24.263 2°47.572 31.1 12.2 35 27.7
2011-07-18 11:11:03 51°24.426 2°47.745 41 12.1 38 25.2
2011-07-18 11:12:02 51°24.551 2°47.974 49.9 12.1 51 25.8
2011-07-18 11:13:03 51°24.686 2°48.206 42.9 12.1 32 26
2011-07-18 11:14:02 51°24.825 2°48.383 39.4 8.6 45 25.6
2011-07-18 11:15:03 51°24.91 2°48.475 18.6 4.1 18 26.3
2011-07-18 11:16:03 51°24.938 2°48.48 345.6 0.6 69 26.3
2011-07-18 11:17:02 51°24.937 2°48.488 335.3 0.4 163 25.9
2011-07-18 11:18:03 51°24.934 2°48.504 338.4 0.4 122 25.1
2011-07-18 11:19:03 51°24.93 2°48.52 340.3 0.9 95 27.4
2011-07-18 11:20:02 51°24.927 2°48.534 339.8 0.8 101 26.9
2011-07-18 11:21:03 51°24.935 2°48.542 345.5 2.2 337 26.4
2011-07-18 11:22:03 51°25.012 2°48.548 17.9 7.2 16 27
2011-07-18 11:23:02 51°25.173 2°48.556 349.6 11.5 348 27.9
2011-07-18 11:24:03 51°25.368 2°48.573 12.4 12 359 29.4
2011-07-18 11:25:03 51°25.567 2°48.569 356.5 12 350 24.6
2011-07-18 11:26:03 51°25.764 2°48.543 0.2 11.7 358 24
2011-07-18 11:27:03 51°25.925 2°48.538 354.3 6.3 345 23.7
2011-07-18 11:28:02 51°25.972 2°48.515 323.1 1 358 24.9
2011-07-18 11:29:03 51°25.974 2°48.527 322.4 0.8 82 24.4
2011-07-18 11:30:03 51°25.973 2°48.543 337.8 0.4 111 24
2011-07-18 11:31:03 51°25.97 2°48.563 340.2 0.8 98 24.3
2011-07-18 11:32:02 51°25.969 2°48.578 333.6 0.3 109 24.5
2011-07-18 11:33:03 51°25.971 2°48.593 330.4 0.4 79 25.1
2011-07-18 11:34:02 51°25.972 2°48.608 324.8 0.5 138 24.8
2011-07-18 11:35:03 51°25.97 2°48.628 331 0.8 108 24.8
2011-07-18 11:36:02 51°25.968 2°48.647 331.8 0.6 116 24.3
2011-07-18 11:37:02 51°25.967 2°48.664 326.7 0.5 111 24
2011-07-18 11:38:02 51°25.971 2°48.677 341 1.1 3 24
2011-07-18 11:39:02 51°26.009 2°48.686 13.2 3.1 29 24.7
2011-07-18 11:40:03 51°26.037 2°48.76 81.1 4 90 24.4
2011-07-18 11:41:02 51°26.026 2°48.918 94.4 7.5 97 -999
2011-07-18 11:42:02 51°26.012 2°49.122 95.2 7.9 98 24.3
2011-07-18 11:43:02 51°26.003 2°49.33 90.6 7.9 98 24
2011-07-18 11:44:03 51°26.006 2°49.547 83.9 8.2 85 24.4
2011-07-18 11:45:03 51°26.015 2°49.762 83.5 8.3 88 24.4
2011-07-18 11:46:02 51°26.026 2°49.976 82.5 8.2 90 24.4
2011-07-18 11:47:03 51°26.038 2°50.196 83.6 8.1 80 24.6
2011-07-18 11:48:02 51°26.03 2°50.426 91.7 9.3 96 23.7
2011-07-18 11:49:02 51°26.014 2°50.678 92.8 9.6 96 24.5
2011-07-18 11:50:02 51°25.994 2°50.932 93.2 9.7 101 24.7
2011-07-18 11:51:02 51°25.974 2°51.182 93.7 9.7 98 24.5
2011-07-18 11:52:02 51°25.956 2°51.482 93.7 11.5 95 25.4
2011-07-18 11:53:02 51°25.945 2°51.817 91.1 12.8 86 29.7
2011-07-18 11:54:02 51°25.935 2°52.145 87.7 12.2 93 26.8
2011-07-18 11:55:02 51°25.939 2°52.477 83.8 12.3 88 28.4
2011-07-18 11:56:03 51°25.951 2°52.804 88.9 11.4 89 28
2011-07-18 11:57:02 51°25.956 2°53.128 87.4 13.4 94 29.4
2011-07-18 11:58:03 51°25.959 2°53.465 86.5 13 83 30.4
2011-07-18 11:59:02 51°25.968 2°53.793 83.8 13.1 85 29.2
2011-07-18 12:00:03 51°25.981 2°54.126 81.4 12 80 24
2011-07-18 12:01:02 51°25.985 2°54.448 88.9 12.6 96 24.2
2011-07-18 12:02:02 51°25.986 2°54.778 85.4 13.1 93 25.2
2011-07-18 12:03:02 51°25.982 2°55.109 89.3 12 93 22.3
2011-07-18 12:04:02 51°25.98 2°55.444 92.4 11.8 94 21
2011-07-18 12:05:04 51°25.982 2°55.791 83.7 13.1 87 18.9
2011-07-18 12:06:02 51°25.986 2°56.111 87 12.4 89 17.9
2011-07-18 12:07:03 51°26.006 2°56.453 80.8 13.9 87 17.8
2011-07-18 12:08:03 51°26.017 2°56.787 89.4 11.6 90 17.6
2011-07-18 12:09:02 51°26.028 2°57.119 85.1 12.3 86 17.6
2011-07-18 12:10:02 51°26.033 2°57.46 87.3 13.8 79 19.9
2011-07-18 12:11:02 51°26.037 2°57.796 88 12.3 91 21.6
2011-07-18 12:12:02 51°26.047 2°58.137 86.6 13 85 24.1
2011-07-18 12:13:02 51°26.061 2°58.474 87.9 11.8 84 25.2
2011-07-18 12:14:02 51°26.08 2°58.811 84.6 12.7 80 26
2011-07-18 12:15:02 51°26.108 2°59.142 80.7 12.7 84 26.4
2011-07-18 12:16:02 51°26.126 2°59.471 84.7 12.8 87 25.7
2011-07-18 12:17:02 51°26.133 2°59.81 88.4 12.1 95 24.4
2011-07-18 12:18:02 51°26.151 3°0.141 79.8 12.5 77 22.2
2011-07-18 12:19:02 51°26.176 3°0.473 87 12.4 85 17.9
2011-07-18 12:20:02 51°26.194 3°0.806 84.9 13 88 15.2
2011-07-18 12:21:03 51°26.209 3°1.145 81.8 13.5 87 14.4
2011-07-18 12:22:02 51°26.217 3°1.479 89.1 12.1 90 13.2
2011-07-18 12:23:03 51°26.225 3°1.823 86.8 12.3 86 11.8
2011-07-18 12:24:02 51°26.235 3°2.162 85.7 13.4 89 12.3
2011-07-18 12:25:03 51°26.249 3°2.509 86.2 13.3 82 12.3
2011-07-18 12:26:02 51°26.264 3°2.851 82.2 12.8 84 12.5
2011-07-18 12:27:02 51°26.27 3°3.201 89.6 14 88 12.7
2011-07-18 12:28:03 51°26.284 3°3.554 81.5 12.3 85 12.5
2011-07-18 12:29:03 51°26.303 3°3.903 90.1 12.3 89 -999
2011-07-18 12:30:02 51°26.31 3°4.253 89.8 13.4 88 12.6
2011-07-18 12:31:02 51°26.327 3°4.605 84.8 13.1 85 12.9
2011-07-18 12:32:02 51°26.327 3°4.957 91.5 13.3 95 12.8
2011-07-18 12:33:02 51°26.32 3°5.308 91.4 13.1 88 13.1
2011-07-18 12:34:02 51°26.315 3°5.662 87.9 13.7 85 12.4
2011-07-18 12:35:02 51°26.31 3°6.017 90.4 12.8 85 12.7
2011-07-18 12:36:02 51°26.31 3°6.371 87 12.6 92 12.9
2011-07-18 12:37:02 51°26.307 3°6.727 100.2 13.2 102 12.3
2011-07-18 12:38:02 51°26.3 3°7.084 89.1 13.4 96 12.5
2011-07-18 12:39:02 51°26.302 3°7.441 88.9 14.6 90 10.5
2011-07-18 12:40:03 51°26.34 3°7.796 71.1 13.6 70 10.9
2011-07-18 12:41:03 51°26.397 3°8.111 71.6 11 77 11.6
2011-07-18 12:42:02 51°26.412 3°8.323 75.8 6.3 75 12.2
2011-07-18 12:43:02 51°26.456 3°8.415 13.9 2.6 45 11.5
2011-07-18 12:44:02 51°26.465 3°8.462 341.3 1.9 84 12.5
2011-07-18 12:45:02 51°26.468 3°8.513 337.1 1.8 83 11.2
2011-07-18 12:46:02 51°26.47 3°8.563 331.8 2.2 83 12.4
2011-07-18 12:47:02 51°26.473 3°8.616 333 2.3 84 11.2
2011-07-18 12:48:02 51°26.475 3°8.67 334.2 2 87 11.5
2011-07-18 12:49:02 51°26.477 3°8.724 337.3 2.6 84 12
2011-07-18 12:50:02 51°26.48 3°8.778 334.9 2.1 71 11.8
2011-07-18 12:51:02 51°26.506 3°8.775 285.8 1.9 306 11
2011-07-18 12:52:02 51°26.481 3°8.74 216.3 3.5 191 11.5
2011-07-18 12:53:03 51°26.411 3°8.724 210.6 3.9 187 11.5
2011-07-18 12:54:02 51°26.35 3°8.71 217.3 3.6 188 11.2
2011-07-18 12:55:02 51°26.299 3°8.69 236.5 2.4 218 12
2011-07-18 12:56:02 51°26.285 3°8.643 255.6 2.5 245 12.2
2011-07-18 12:57:02 51°26.256 3°8.574 239.6 3.8 224 11.9
2011-07-18 12:58:02 51°26.194 3°8.496 231.8 5.1 218 12
2011-07-18 12:59:04 51°26.129 3°8.396 236.1 5.1 224 11.3
2011-07-18 13:00:02 51°26.075 3°8.309 238.8 4.6 226 10.6
2011-07-18 13:01:03 51°26.019 3°8.213 236.3 4.5 224 11.4
2011-07-18 13:02:03 51°25.973 3°8.114 243.7 4.5 233 11.3
2011-07-18 13:03:03 51°25.926 3°8.006 241.8 4.7 231 12.3
2011-07-18 13:04:02 51°25.873 3°7.903 233.9 5.4 223 11.6
2011-07-18 13:05:02 51°25.81 3°7.811 233.1 5.2 223 11.5
2011-07-18 13:06:03 51°25.741 3°7.719 223.6 5.5 212 11.8
2011-07-18 13:07:03 51°25.65 3°7.661 212.3 6.2 198 11.9
2011-07-18 13:08:02 51°25.542 3°7.598 211.8 8.5 203 11.5
2011-07-18 13:09:02 51°25.387 3°7.527 198.6 10.1 190 10.7
2011-07-18 13:10:03 51°25.22 3°7.533 185.9 10.5 174 11.5
2011-07-18 13:11:02 51°25.048 3°7.635 143.8 12.4 128 10.8
2011-07-18 13:12:02 51°24.937 3°7.95 124.2 14.5 111 11.9
2011-07-18 13:13:02 51°24.833 3°8.227 128.4 10.3 120 12
2011-07-18 13:14:02 51°24.745 3°8.46 129.1 10.9 116 12.7
2011-07-18 13:15:02 51°24.651 3°8.71 127.1 11.3 118 12.6
2011-07-18 13:16:02 51°24.545 3°8.942 142.6 9.8 129 12.8
2011-07-18 13:17:02 51°24.462 3°9.099 149.6 7.5 130 14.3
2011-07-18 13:18:02 51°24.325 3°9.305 145.5 13.3 139 17.4
2011-07-18 13:19:02 51°24.16 3°9.556 141.6 13.9 135 21.2
2011-07-18 13:20:02 51°24.01 3°9.843 140.1 13.8 134 19.8
2011-07-18 13:21:02 51°23.846 3°10.094 150.1 13.2 143 17
2011-07-18 13:22:02 51°23.674 3°10.319 149.6 12.9 144 16.4
2011-07-18 13:23:02 51°23.503 3°10.536 151.9 13.5 139 16.3
2011-07-18 13:24:03 51°23.332 3°10.772 148.2 13.7 131 15.3
2011-07-18 13:25:03 51°23.193 3°11.065 132.4 13.8 129 -999
2011-07-18 13:26:03 51°23.072 3°11.384 132.2 13.9 128 14.8
2011-07-18 13:27:02 51°22.927 3°11.661 141.1 13.2 143 14.8
2011-07-18 13:28:02 51°22.779 3°11.942 140.8 14.3 128 15.5
2011-07-18 13:29:02 51°22.647 3°12.259 123 14.3 111 15.6
2011-07-18 13:30:02 51°22.596 3°12.658 100.9 14.8 96 15.8
2011-07-18 13:31:03 51°22.575 3°13.046 95.3 11.8 91 14.7
2011-07-18 13:32:03 51°22.618 3°13.266 26.9 6.6 45 14.6
2011-07-18 13:33:02 51°22.664 3°13.364 345 3.6 74 14.2
2011-07-18 13:34:02 51°22.68 3°13.461 334.9 3.5 78 13.7
2011-07-18 13:35:03 51°22.693 3°13.563 330.3 3.9 79 13.8
2011-07-18 13:36:02 51°22.703 3°13.666 339.7 4.1 82 13.6
2011-07-18 13:37:03 51°22.711 3°13.771 345 4 83 13.4
2011-07-18 13:38:02 51°22.719 3°13.874 346.3 4.2 84 13.5
2011-07-18 13:39:02 51°22.727 3°13.977 346.7 3.7 74 13.1
2011-07-18 13:40:03 51°22.768 3°14.042 311.6 3.2 17 13.3
2011-07-18 13:41:02 51°22.792 3°14.026 256.4 1.2 248 12.7
2011-07-18 13:42:03 51°22.775 3°13.977 255.3 2.7 249 12.5
2011-07-18 13:43:02 51°22.761 3°13.882 258.3 4.4 259 13.5
2011-07-18 13:44:03 51°22.745 3°13.759 256.1 4.7 255 13.5
2011-07-18 13:45:02 51°22.722 3°13.647 255.8 4.3 255 14.1
2011-07-18 13:46:02 51°22.702 3°13.526 257.2 4.8 255 14.2
2011-07-18 13:47:02 51°22.682 3°13.407 256.7 3.7 252 13.6
2011-07-18 13:48:02 51°22.661 3°13.297 256 4.3 251 14.1
2011-07-18 13:49:03 51°22.635 3°13.181 254.4 4.8 249 14.5
2011-07-18 13:50:03 51°22.608 3°13.061 256.7 4.3 251 15.9
2011-07-18 13:51:02 51°22.591 3°12.948 257.7 4.4 256 15
2011-07-18 13:52:02 51°22.568 3°12.835 254.8 4.7 249 16.3
2011-07-18 13:53:02 51°22.543 3°12.718 255.9 4.8 253 16.5
2011-07-18 13:54:02 51°22.522 3°12.596 257.7 4.9 258 16.7
2011-07-18 13:55:02 51°22.5 3°12.455 256.1 6 255 16
2011-07-18 13:56:02 51°22.47 3°12.259 256.6 8.7 256 17.5
2011-07-18 13:57:02 51°22.432 3°12.032 254.2 8.9 253 17.9
2011-07-18 13:58:03 51°22.394 3°11.818 255.6 8 256 18.8
2011-07-18 13:59:03 51°22.361 3°11.609 257.5 8.5 258 19
2011-07-18 14:00:02 51°22.331 3°11.388 257.4 8.7 258 19
2011-07-18 14:01:02 51°22.298 3°11.158 255.9 8.6 258 -999
2011-07-18 14:02:03 51°22.269 3°10.925 255.6 8.6 256 18.9
2011-07-18 14:03:02 51°22.241 3°10.698 255.8 9.5 257 22.2
2011-07-18 14:04:03 51°22.212 3°10.466 257.2 8.5 259 18.4
2011-07-18 14:05:03 51°22.173 3°10.254 243.6 8.2 244 17.6
2011-07-18 14:06:02 51°22.093 3°10.078 236.5 9 234 18.1
2011-07-18 14:07:02 51°22.005 3°9.88 238.9 9.2 238 16.3
2011-07-18 14:08:02 51°21.923 3°9.671 239.3 9.2 236 15.3
2011-07-18 14:09:02 51°21.841 3°9.465 238.5 9.5 236 16.1
2011-07-18 14:10:03 51°21.762 3°9.257 241.8 9.1 243 14.2
2011-07-18 14:11:02 51°21.688 3°9.041 245.9 9.6 247 14.4
2011-07-18 14:12:02 51°21.64 3°8.8 251.4 9.5 253 13.2
2011-07-18 14:13:02 51°21.592 3°8.564 249 9.5 252 13.5
2011-07-18 14:14:02 51°21.534 3°8.329 246.9 9.3 248 12.6
2011-07-18 14:15:02 51°21.473 3°8.098 246.8 9.2 247 13
2011-07-18 14:16:02 51°21.415 3°7.874 246 9 245 11.7
2011-07-18 14:17:02 51°21.36 3°7.656 247.8 9.1 250 12.1
2011-07-18 14:18:03 51°21.307 3°7.415 247.6 9.5 249 11.9
2011-07-18 14:19:02 51°21.25 3°7.194 245 8.9 247 12.6
2011-07-18 14:20:03 51°21.196 3°6.963 247.4 9.3 251 11.5
2011-07-18 14:21:02 51°21.141 3°6.732 245.3 9.3 247 11.5
2011-07-18 14:22:02 51°21.086 3°6.498 248.3 9.2 252 12.5
2011-07-18 14:23:02 51°21.036 3°6.267 247.6 8.8 248 11.2
2011-07-18 14:24:02 51°20.982 3°6.039 247.7 9.3 250 11.4
2011-07-18 14:25:02 51°20.926 3°5.811 243.7 9.1 242 10.9
2011-07-18 14:26:02 51°20.813 3°5.644 223.7 9.4 217 11
2011-07-18 14:27:02 51°20.665 3°5.538 208.1 10.3 198 10.8
2011-07-18 14:28:02 51°20.511 3°5.445 207.7 10 200 10.4
2011-07-18 14:29:02 51°20.362 3°5.337 214.6 9.9 210 10.1
2011-07-18 14:30:02 51°20.241 3°5.178 231 9.1 231 10.9
2011-07-18 14:31:03 51°20.11 3°5.044 209.2 9.4 203 11.1
2011-07-18 14:32:02 51°19.962 3°4.951 211.3 9.7 203 11.8
2011-07-18 14:33:02 51°19.814 3°4.842 212.6 9.9 207 10.7
2011-07-18 14:34:02 51°19.673 3°4.72 216.4 9.7 212 11.7
2011-07-18 14:35:02 51°19.536 3°4.583 216.4 9.7 212 10.2
2011-07-18 14:36:02 51°19.395 3°4.444 216.6 9.9 217 11.1
2011-07-18 14:37:03 51°19.264 3°4.28 222.6 10 222 10.5
2011-07-18 14:38:02 51°19.149 3°4.095 228.7 9.8 225 11.8
2011-07-18 14:39:02 51°19.036 3°3.9 233.5 9.9 233 11.2
2011-07-18 14:40:02 51°18.942 3°3.692 234.1 9.7 234 11.2
2011-07-18 14:41:02 51°18.841 3°3.486 231.5 9.8 232 11
2011-07-18 14:42:02 51°18.758 3°3.264 242.7 9.7 245 11.2
2011-07-18 14:43:02 51°18.688 3°3.027 243.2 10 244 11.7
2011-07-18 14:44:02 51°18.602 3°2.804 235.2 9.7 236 11.8
2011-07-18 14:45:03 51°18.513 3°2.594 237.4 9.2 237 12.3
2011-07-18 14:46:03 51°18.429 3°2.378 237.8 9.7 239 11.6
2011-07-18 14:47:02 51°18.347 3°2.161 237.4 9.6 239 11.2
2011-07-18 14:48:02 51°18.262 3°1.945 236.5 9.1 236 11.6
2011-07-18 14:49:02 51°18.176 3°1.734 236.5 9.7 238 12
2011-07-18 14:50:02 51°18.092 3°1.515 236.7 9.5 237 12.9
2011-07-18 14:51:02 51°18.004 3°1.304 236.1 9.6 235 12.2
2011-07-18 14:52:02 51°17.916 3°1.087 238.9 9.5 239 11.5
2011-07-18 14:53:02 51°17.827 3°0.868 238.2 9.8 238 11.9
2011-07-18 14:54:02 51°17.743 3°0.642 237.9 9.8 237 12.3
2011-07-18 14:55:02 51°17.652 3°0.423 235.9 9.9 236 13.1
2011-07-18 14:56:02 51°17.559 3°0.205 236.9 10 236 13.1
2011-07-18 14:57:02 51°17.469 2°59.983 238.7 10.1 239 12.5
2011-07-18 14:58:02 51°17.383 2°59.753 238.8 10.1 240 12.4
2011-07-18 14:59:02 51°17.291 2°59.536 235.6 10.1 235 12.7
2011-07-18 15:00:03 51°17.19 2°59.316 235.1 9.6 234 11.9
2011-07-18 15:01:02 51°17.106 2°59.1 239.6 10 239 12.2
2011-07-18 15:02:02 51°17.018 2°58.872 238.3 10.3 236 13
2011-07-18 15:03:02 51°16.92 2°58.651 235.5 10.2 236 12.1
2011-07-18 15:04:02 51°16.827 2°58.43 238.4 10.1 239 12.6
2011-07-18 15:05:02 51°16.745 2°58.197 240.4 10.2 242 13
2011-07-18 15:06:02 51°16.661 2°57.962 237.5 10.1 237 12.2
2011-07-18 15:07:02 51°16.57 2°57.735 238.9 10.2 239 12.5
2011-07-18 15:08:02 51°16.492 2°57.498 241.2 9.8 241 11.9
2011-07-18 15:09:02 51°16.403 2°57.275 236.7 9.8 237 11.5
2011-07-18 15:10:02 51°16.317 2°57.046 238.8 10.1 240 12.3
2011-07-18 15:11:02 51°16.238 2°56.807 241.2 10.2 242 12.1
2011-07-18 15:12:02 51°16.152 2°56.57 236.1 10.4 237 11.9
2011-07-18 15:13:02 51°16.063 2°56.335 238.8 10.5 240 12
2011-07-18 15:14:02 51°15.979 2°56.095 240.8 10.2 243 12.4
2011-07-18 15:15:02 51°15.898 2°55.857 239.1 10.1 240 12.3
2011-07-18 15:16:02 51°15.808 2°55.625 238.5 10.5 240 12.4
2011-07-18 15:17:02 51°15.722 2°55.386 237.6 10.2 237 12.1
2011-07-18 15:18:02 51°15.627 2°55.16 235.3 10.4 236 11.6
2011-07-18 15:19:02 51°15.522 2°54.941 231.2 10.5 230 11.9
2011-07-18 15:20:02 51°15.405 2°54.734 228.9 10.6 228 12
2011-07-18 15:21:02 51°15.293 2°54.519 232.5 10.5 232 12.1
2011-07-18 15:22:02 51°15.143 2°54.411 182.2 10.6 169 12
2011-07-18 15:23:02 51°14.979 2°54.577 153.2 12.1 143 12.8
2011-07-18 15:24:02 51°14.816 2°54.768 151.3 12.5 142 13.9
2011-07-18 15:25:02 51°14.653 2°54.962 152.3 12.4 141 14.3
2011-07-18 15:26:02 51°14.475 2°55.106 155.4 12 159 13.9
2011-07-18 15:27:03 51°14.319 2°55.252 149.6 9.1 152 14.1
2011-07-18 15:28:02 51°14.195 2°55.362 151 8.7 152 13.8
2011-07-18 15:29:02 51°14.076 2°55.454 154.8 7.8 156 13.8
2011-07-18 15:30:02 51°13.959 2°55.538 155.3 7.2 155 13.8
2011-07-18 15:31:02 51°13.856 2°55.613 154.9 6.6 155 13.7
2011-07-18 15:32:03 51°13.764 2°55.707 140.4 6.4 140 13.7
2011-07-18 15:33:03 51°13.7 2°55.818 127.3 4.8 127 -999
2011-07-18 15:34:02 51°13.661 2°55.904 124.8 3.5 123 13.1
2011-07-18 15:35:02 51°13.638 2°55.985 109.7 3.3 108 10.9
2011-07-18 15:36:02 51°13.634 2°56.015 113.3 0.2 301 9.6